createdAt,value
2023-05-14T00:00:11.663Z,7.00
2023-05-14T00:03:00.372Z,6.90
2023-05-14T00:05:29.570Z,7.70
2023-05-14T00:07:58.195Z,6.90
2023-05-14T00:10:27.898Z,7.30
2023-05-14T00:12:56.575Z,7.10
2023-05-14T00:15:25.380Z,7.30
2023-05-14T00:17:54.114Z,7.70
2023-05-14T00:20:23.066Z,7.50
2023-05-14T00:22:52.997Z,7.60
2023-05-14T00:25:21.763Z,7.30
2023-05-14T00:27:50.339Z,7.40
2023-05-14T00:30:20.644Z,7.50
2023-05-14T00:32:49.314Z,7.70
2023-05-14T00:35:18.248Z,7.50
2023-05-14T00:37:46.844Z,7.50
2023-05-14T00:40:15.916Z,7.50
2023-05-14T00:42:44.609Z,8.10
2023-05-14T00:45:14.737Z,7.90
2023-05-14T00:47:44.559Z,8.00
2023-05-14T00:50:13.926Z,7.40
2023-05-14T00:52:43.144Z,8.00
2023-05-14T00:55:17.118Z,7.70
2023-05-14T00:57:46.993Z,6.90
2023-05-14T01:00:16.054Z,7.10
2023-05-14T01:02:44.656Z,8.10
2023-05-14T01:05:13.751Z,7.50
2023-05-14T01:07:54.811Z,8.10
2023-05-14T01:10:38.639Z,7.50
2023-05-14T01:13:18.772Z,8.10
2023-05-14T01:15:49.037Z,7.70
2023-05-14T01:18:19.869Z,7.90
2023-05-14T01:20:51.888Z,7.30
2023-05-14T01:23:20.610Z,7.20
2023-05-14T01:25:49.118Z,7.40
2023-05-14T01:28:29.993Z,7.70
2023-05-14T01:31:07.424Z,7.10
2023-05-14T01:33:37.751Z,7.60
2023-05-14T01:36:06.967Z,7.80
2023-05-14T01:38:37.208Z,7.70
2023-05-14T01:41:05.869Z,7.80
2023-05-14T01:43:35.541Z,7.90
2023-05-14T01:46:05.334Z,7.20
2023-05-14T01:48:34.195Z,8.60
2023-05-14T01:51:03.200Z,8.80
2023-05-14T01:53:31.882Z,8.20
2023-05-14T01:56:00.749Z,7.70
2023-05-14T01:58:29.326Z,8.30
2023-05-14T02:00:58.154Z,8.90
2023-05-14T02:03:28.072Z,8.50
2023-05-14T02:05:56.929Z,9.10
2023-05-14T02:08:28.765Z,8.20
2023-05-14T02:10:58.911Z,8.80
2023-05-14T02:13:27.925Z,8.60
2023-05-14T02:15:57.563Z,8.30
2023-05-14T02:18:29.002Z,8.10
2023-05-14T02:20:58.390Z,8.00
2023-05-14T02:23:37.667Z,8.30
2023-05-14T02:26:10.811Z,8.40
2023-05-14T02:28:39.607Z,7.90
2023-05-14T02:31:08.922Z,7.90
2023-05-14T02:33:37.905Z,7.20
2023-05-14T02:36:07.272Z,7.40
2023-05-14T02:38:36.071Z,8.70
2023-05-14T02:41:07.247Z,8.00
2023-05-14T02:43:39.260Z,7.60
2023-05-14T02:46:11.244Z,8.10
2023-05-14T02:48:44.174Z,8.30
2023-05-14T02:51:18.212Z,7.80
2023-05-14T02:53:50.702Z,7.00
2023-05-14T02:56:24.310Z,7.30
2023-05-14T02:58:57.900Z,8.20
2023-05-14T03:01:33.551Z,7.60
2023-05-14T03:04:04.588Z,6.60
2023-05-14T03:06:38.427Z,7.30
2023-05-14T03:09:10.328Z,7.60
2023-05-14T03:11:40.483Z,7.40
2023-05-14T03:14:09.077Z,7.00
2023-05-14T03:16:38.011Z,7.60
2023-05-14T03:19:06.822Z,7.40
2023-05-14T03:21:36.687Z,7.30
2023-05-14T03:24:10.906Z,7.40
2023-05-14T03:26:43.181Z,7.10
2023-05-14T03:29:19.715Z,6.20
2023-05-14T03:31:54.738Z,6.60
2023-05-14T03:34:29.572Z,6.90
2023-05-14T03:37:01.558Z,7.00
2023-05-14T03:39:37.381Z,8.00
2023-05-14T03:42:11.062Z,7.60
2023-05-14T03:44:45.538Z,7.20
2023-05-14T03:47:18.734Z,7.20
2023-05-14T03:49:51.423Z,6.30
2023-05-14T03:52:22.760Z,6.50
2023-05-14T03:54:52.456Z,6.70
2023-05-14T03:57:21.731Z,7.30
2023-05-14T03:59:50.639Z,6.60
2023-05-14T04:02:21.017Z,6.70
2023-05-14T04:04:52.207Z,7.60
2023-05-14T04:07:22.411Z,7.10
2023-05-14T04:09:55.289Z,7.30
2023-05-14T04:12:27.111Z,6.40
2023-05-14T04:15:00.251Z,6.10
2023-05-14T04:17:36.016Z,6.80
2023-05-14T04:20:09.775Z,7.50
2023-05-14T04:22:42.129Z,6.30
2023-05-14T04:25:15.356Z,6.90
2023-05-14T04:27:51.245Z,6.70
2023-05-14T04:30:24.074Z,6.40
2023-05-14T04:32:57.580Z,6.30
2023-05-14T04:35:35.069Z,6.20
2023-05-14T04:38:04.684Z,6.50
2023-05-14T04:40:33.595Z,6.50
2023-05-14T04:43:02.277Z,6.90
2023-05-14T04:45:34.058Z,7.00
2023-05-14T04:48:04.579Z,6.50
2023-05-14T04:50:33.259Z,6.60
2023-05-14T04:53:02.248Z,6.20
2023-05-14T04:55:30.820Z,6.50
2023-05-14T04:57:59.710Z,6.60
2023-05-14T05:00:29.078Z,5.70
2023-05-14T05:03:00.682Z,6.20
2023-05-14T05:05:32.823Z,5.70
2023-05-14T05:08:07.565Z,6.30
2023-05-14T05:10:39.483Z,6.90
2023-05-14T05:13:16.595Z,6.00
2023-05-14T05:15:47.749Z,6.20
2023-05-14T05:18:20.623Z,6.70
2023-05-14T05:20:53.303Z,6.40
2023-05-14T05:23:26.942Z,6.30
2023-05-14T05:25:58.921Z,7.10
2023-05-14T05:28:31.831Z,6.50
2023-05-14T05:31:04.484Z,6.70
2023-05-14T05:33:33.065Z,6.00
2023-05-14T05:36:02.390Z,6.90
2023-05-14T05:38:34.553Z,6.90
2023-05-14T05:41:09.414Z,6.50
2023-05-14T05:43:44.456Z,6.70
2023-05-14T05:46:18.160Z,6.20
2023-05-14T05:48:54.542Z,7.00
2023-05-14T05:51:27.046Z,6.60
2023-05-14T05:54:03.771Z,6.40
2023-05-14T05:56:37.506Z,6.60
2023-05-14T05:59:10.560Z,6.70
2023-05-14T06:01:43.594Z,6.90
2023-05-14T06:04:20.196Z,6.70
2023-05-14T06:06:51.983Z,7.10
2023-05-14T06:09:22.119Z,5.90
2023-05-14T06:11:50.911Z,6.80
2023-05-14T06:14:19.692Z,6.70
2023-05-14T06:16:48.649Z,7.70
2023-05-14T06:19:17.604Z,7.50
2023-05-14T06:21:46.473Z,6.60
2023-05-14T06:24:15.369Z,7.10
2023-05-14T06:26:44.050Z,7.30
2023-05-14T06:29:13.158Z,6.70
2023-05-14T06:31:41.960Z,7.60
2023-05-14T06:34:11.336Z,8.00
2023-05-14T06:36:41.175Z,8.10
2023-05-14T06:39:10.542Z,7.40
2023-05-14T06:41:39.446Z,7.30
2023-05-14T06:44:13.117Z,7.40
2023-05-14T06:46:46.136Z,7.20
2023-05-14T06:49:16.294Z,7.10
2023-05-14T06:51:45.360Z,6.20
2023-05-14T06:54:13.928Z,6.40
2023-05-14T06:56:42.711Z,7.10
2023-05-14T06:59:11.825Z,7.60
2023-05-14T07:01:41.401Z,7.40
2023-05-14T07:04:10.219Z,7.60
2023-05-14T07:06:39.456Z,7.70
2023-05-14T07:09:08.594Z,6.80
2023-05-14T07:11:37.299Z,7.30
2023-05-14T07:14:06.584Z,6.60
2023-05-14T07:16:35.676Z,6.80
2023-05-14T07:19:06.777Z,6.60
2023-05-14T07:21:36.943Z,5.60
2023-05-14T07:24:06.544Z,6.60
2023-05-14T07:26:35.647Z,6.20
2023-05-14T07:29:04.749Z,4.60
2023-05-14T07:31:34.278Z,4.50
2023-05-14T07:34:04.781Z,5.20
2023-05-14T07:36:33.664Z,5.70
2023-05-14T07:39:02.957Z,4.80
2023-05-14T07:41:31.634Z,4.80
2023-05-14T07:44:01.655Z,4.20
2023-05-14T07:46:30.543Z,4.30
2023-05-14T07:48:59.346Z,3.80
2023-05-14T07:51:30.381Z,3.90
2023-05-14T07:54:01.402Z,3.90
2023-05-14T07:56:31.117Z,3.50
2023-05-14T07:59:00.008Z,3.40
2023-05-14T08:01:28.795Z,2.20
2023-05-14T08:03:57.683Z,2.80
2023-05-14T08:06:30.172Z,2.40
2023-05-14T08:08:58.754Z,3.30
2023-05-14T08:11:27.537Z,2.60
2023-05-14T08:13:56.240Z,2.70
2023-05-14T08:16:26.565Z,3.30
2023-05-14T08:18:55.309Z,3.00
2023-05-14T08:21:24.017Z,2.70
2023-05-14T08:23:52.703Z,2.60
2023-05-14T08:26:24.619Z,2.40
2023-05-14T08:28:55.429Z,2.40
2023-05-14T08:31:25.279Z,2.50
2023-05-14T08:33:54.028Z,2.80
2023-05-14T08:36:23.942Z,2.90
2023-05-14T08:38:52.522Z,1.90
2023-05-14T08:41:22.641Z,2.10
2023-05-14T08:44:07.734Z,2.50
2023-05-14T08:46:38.728Z,2.70
2023-05-14T08:49:30.051Z,2.60
2023-05-14T08:51:59.158Z,2.40
2023-05-14T08:54:30.497Z,2.60
2023-05-14T08:56:59.899Z,2.20
2023-05-14T08:59:32.718Z,2.30
2023-05-14T09:02:08.083Z,2.80
2023-05-14T09:04:42.839Z,2.90
2023-05-14T09:07:14.590Z,2.50
2023-05-14T09:09:45.558Z,2.30
2023-05-14T09:12:14.528Z,1.90
2023-05-14T09:14:44.746Z,1.70
2023-05-14T09:17:13.883Z,2.40
2023-05-14T09:19:43.978Z,2.30
2023-05-14T09:22:14.077Z,2.20
2023-05-14T09:24:43.191Z,2.40
2023-05-14T09:27:21.961Z,2.40
2023-05-14T09:29:50.678Z,2.80
2023-05-14T09:32:21.004Z,3.10
2023-05-14T09:34:50.640Z,2.40
2023-05-14T09:37:19.409Z,2.40
2023-05-14T09:39:48.088Z,2.20
2023-05-14T09:42:17.091Z,2.40
2023-05-14T09:44:47.019Z,2.30
2023-05-14T09:47:16.440Z,2.30
2023-05-14T09:49:50.998Z,1.70
2023-05-14T09:52:20.320Z,1.90
2023-05-14T09:54:49.326Z,1.70
2023-05-14T09:57:17.921Z,1.80
2023-05-14T09:59:47.003Z,1.60
2023-05-14T10:02:27.623Z,2.20
2023-05-14T10:04:59.210Z,1.90
2023-05-14T10:07:34.505Z,1.80
2023-05-14T10:10:13.934Z,2.10
2023-05-14T10:12:55.363Z,1.60
2023-05-14T10:15:38.609Z,1.80
2023-05-14T10:18:19.709Z,2.10
2023-05-14T10:20:52.776Z,1.70
2023-05-14T10:23:21.458Z,1.80
2023-05-14T10:25:50.457Z,1.70
2023-05-14T10:28:19.648Z,2.00
2023-05-14T10:30:49.076Z,2.00
2023-05-14T10:33:19.008Z,2.10
2023-05-14T10:36:08.040Z,2.10
2023-05-14T10:38:38.056Z,2.00
2023-05-14T10:41:12.538Z,1.60
2023-05-14T10:43:46.199Z,1.60
2023-05-14T10:46:15.500Z,2.20
2023-05-14T10:48:44.764Z,2.30
2023-05-14T10:51:14.765Z,2.20
2023-05-14T10:53:43.597Z,2.10
2023-05-14T10:56:15.237Z,2.20
2023-05-14T10:58:45.548Z,2.40
2023-05-14T11:01:14.749Z,2.00
2023-05-14T11:03:45.960Z,2.50
2023-05-14T11:06:16.373Z,2.30
2023-05-14T11:08:47.613Z,1.70
2023-05-14T11:11:19.506Z,2.30
2023-05-14T11:13:48.527Z,2.40
2023-05-14T11:16:23.159Z,2.00
2023-05-14T11:19:05.852Z,2.00
2023-05-14T11:21:34.570Z,1.80
2023-05-14T11:24:05.813Z,1.90
2023-05-14T11:26:34.735Z,2.10
2023-05-14T11:29:05.339Z,1.70
2023-05-14T11:31:34.009Z,1.90
2023-05-14T11:34:04.525Z,1.60
2023-05-14T11:36:33.115Z,2.10
2023-05-14T11:39:01.903Z,2.10
2023-05-14T11:41:31.834Z,2.10
2023-05-14T11:44:00.509Z,2.40
2023-05-14T11:46:32.684Z,1.80
2023-05-14T11:49:11.245Z,1.90
2023-05-14T11:51:41.724Z,2.20
2023-05-14T11:54:10.910Z,2.90
2023-05-14T11:56:39.902Z,2.70
2023-05-14T11:59:11.257Z,2.90
2023-05-14T12:01:40.242Z,2.40
2023-05-14T12:04:08.997Z,2.60
2023-05-14T12:06:39.755Z,2.70
2023-05-14T12:09:08.454Z,2.60
2023-05-14T12:11:37.737Z,2.60
2023-05-14T12:14:23.120Z,2.50
2023-05-14T12:16:52.231Z,2.70
2023-05-14T12:19:23.833Z,2.80
2023-05-14T12:21:54.303Z,2.40
2023-05-14T12:24:26.152Z,2.90
2023-05-14T12:26:55.967Z,2.30
2023-05-14T12:29:27.025Z,2.60
2023-05-14T12:31:59.788Z,3.00
2023-05-14T12:34:28.633Z,2.20
2023-05-14T12:36:57.804Z,2.70
2023-05-14T12:39:27.406Z,2.60
2023-05-14T12:41:56.537Z,2.60
2023-05-14T12:44:25.782Z,2.90
2023-05-14T12:46:54.977Z,2.60
2023-05-14T12:49:23.779Z,2.70
2023-05-14T12:52:03.238Z,2.80
2023-05-14T12:54:43.795Z,3.10
2023-05-14T12:57:12.576Z,2.50
2023-05-14T12:59:41.863Z,2.40
2023-05-14T13:02:11.052Z,2.60
2023-05-14T13:04:39.559Z,2.50
2023-05-14T13:07:09.247Z,2.90
2023-05-14T13:09:38.229Z,2.60
2023-05-14T13:12:07.564Z,3.00
2023-05-14T13:14:37.658Z,3.00
2023-05-14T13:17:07.560Z,2.70
2023-05-14T13:19:36.361Z,3.30
2023-05-14T13:22:05.289Z,3.70
2023-05-14T13:24:34.793Z,3.80
2023-05-14T13:27:04.046Z,2.90
2023-05-14T13:29:32.484Z,2.90
2023-05-14T13:32:01.230Z,3.60
2023-05-14T13:34:30.000Z,3.70
2023-05-14T13:36:58.580Z,3.90
2023-05-14T13:39:27.600Z,3.80
2023-05-14T13:41:57.318Z,3.90
2023-05-14T13:44:26.391Z,3.30
2023-05-14T13:47:03.277Z,3.40
2023-05-14T13:49:41.517Z,3.30
2023-05-14T13:52:13.237Z,3.70
2023-05-14T13:54:41.807Z,3.40
2023-05-14T13:57:11.339Z,4.10
2023-05-14T13:59:39.800Z,4.30
2023-05-14T14:02:09.302Z,3.80
2023-05-14T14:04:38.301Z,4.00
2023-05-14T14:07:07.003Z,4.10
2023-05-14T14:09:37.523Z,8.10
2023-05-14T14:12:06.949Z,8.40
2023-05-14T14:14:35.821Z,5.90
2023-05-14T14:17:05.130Z,4.90
2023-05-14T14:19:34.109Z,5.20
2023-05-14T14:22:02.786Z,5.30
2023-05-14T14:24:31.691Z,8.50
2023-05-14T14:27:02.539Z,6.70
2023-05-14T14:29:31.621Z,6.20
2023-05-14T14:32:00.468Z,5.10
2023-05-14T14:34:29.304Z,5.10
2023-05-14T14:36:58.273Z,6.40
2023-05-14T14:39:27.980Z,5.70
2023-05-14T14:41:56.688Z,4.90
2023-05-14T14:44:25.782Z,4.90
2023-05-14T14:46:54.671Z,4.80
2023-05-14T14:49:24.169Z,4.20
2023-05-14T14:51:53.468Z,4.70
2023-05-14T14:54:24.774Z,4.80
2023-05-14T14:56:56.398Z,4.80
2023-05-14T14:59:25.267Z,4.70
2023-05-14T15:01:54.290Z,5.00
2023-05-14T15:04:23.087Z,4.00
2023-05-14T15:06:51.941Z,4.50
2023-05-14T15:09:20.716Z,5.10
2023-05-14T15:11:49.810Z,5.20
2023-05-14T15:14:18.399Z,4.70
2023-05-14T15:16:49.505Z,4.10
2023-05-14T15:19:19.600Z,4.50
2023-05-14T15:21:48.560Z,4.20
2023-05-14T15:24:17.045Z,4.60
2023-05-14T15:26:50.573Z,4.80
2023-05-14T15:29:23.306Z,4.00
2023-05-14T15:31:52.257Z,4.70
2023-05-14T15:34:21.184Z,4.30
2023-05-14T15:36:49.779Z,4.80
2023-05-14T15:39:18.785Z,4.40
2023-05-14T15:41:47.878Z,4.30
2023-05-14T15:44:16.987Z,4.80
2023-05-14T15:46:45.897Z,4.20
2023-05-14T15:49:14.652Z,4.50
2023-05-14T15:51:43.868Z,4.80
2023-05-14T15:54:12.522Z,4.80
2023-05-14T15:56:41.620Z,5.10
2023-05-14T15:59:14.908Z,4.60
2023-05-14T16:01:46.314Z,4.40
2023-05-14T16:04:21.697Z,4.50
2023-05-14T16:06:55.370Z,5.10
2023-05-14T16:09:28.254Z,5.10
2023-05-14T16:11:58.729Z,4.60
2023-05-14T16:14:27.612Z,4.30
2023-05-14T16:16:56.700Z,4.70
2023-05-14T16:19:25.895Z,4.10
2023-05-14T16:21:54.787Z,4.40
2023-05-14T16:24:24.018Z,4.30
2023-05-14T16:26:52.865Z,4.50
2023-05-14T16:29:22.087Z,4.30
2023-05-14T16:31:51.021Z,4.90
2023-05-14T16:34:19.968Z,4.90
2023-05-14T16:36:48.572Z,5.60
2023-05-14T16:39:18.062Z,5.10
2023-05-14T16:41:56.882Z,5.00
2023-05-14T16:44:25.750Z,4.60
2023-05-14T16:46:54.694Z,5.00
2023-05-14T16:49:23.648Z,5.30
2023-05-14T16:51:52.213Z,4.90
2023-05-14T16:54:21.105Z,4.40
2023-05-14T16:56:49.814Z,4.20
2023-05-14T16:59:18.802Z,5.00
2023-05-14T17:01:48.627Z,4.60
2023-05-14T17:04:18.456Z,4.60
2023-05-14T17:06:47.870Z,4.70
2023-05-14T17:09:18.231Z,4.70
2023-05-14T17:11:47.339Z,5.10
2023-05-14T17:14:16.535Z,5.60
2023-05-14T17:16:45.638Z,5.30
2023-05-14T17:19:15.518Z,5.10
2023-05-14T17:21:44.220Z,5.00
2023-05-14T17:24:13.637Z,5.00
2023-05-14T17:26:42.521Z,5.50
2023-05-14T17:29:11.853Z,5.00
2023-05-14T17:31:41.239Z,5.30
2023-05-14T17:34:10.411Z,4.90
2023-05-14T17:36:40.223Z,5.10
2023-05-14T17:39:10.268Z,5.20
2023-05-14T17:41:39.244Z,4.90
2023-05-14T17:44:13.994Z,6.00
2023-05-14T17:46:45.783Z,5.00
2023-05-14T17:49:18.601Z,5.20
2023-05-14T17:52:01.337Z,5.10
2023-05-14T17:54:30.840Z,5.50
2023-05-14T17:56:59.935Z,5.40
2023-05-14T17:59:28.920Z,5.00
2023-05-14T18:02:00.956Z,4.80
2023-05-14T18:04:30.087Z,4.90
2023-05-14T18:06:58.912Z,5.00
2023-05-14T18:09:28.392Z,5.20
2023-05-14T18:11:58.306Z,4.40
2023-05-14T18:14:29.034Z,4.80
2023-05-14T18:16:59.088Z,4.40
2023-05-14T18:19:27.823Z,5.50
2023-05-14T18:21:58.144Z,4.60
2023-05-14T18:24:27.881Z,5.90
2023-05-14T18:26:57.803Z,5.80
2023-05-14T18:29:27.717Z,6.40
2023-05-14T18:31:56.887Z,6.20
2023-05-14T18:34:27.720Z,6.20
2023-05-14T18:36:58.780Z,5.80
2023-05-14T18:39:31.429Z,5.90
2023-05-14T18:42:09.041Z,6.50
2023-05-14T18:44:46.038Z,6.50
2023-05-14T18:47:15.332Z,6.60
2023-05-14T18:49:45.228Z,5.90
2023-05-14T18:56:10.302Z,6.80
2023-05-14T19:00:10.030Z,6.80
2023-05-14T19:02:40.760Z,6.10
2023-05-14T19:05:10.024Z,7.00
2023-05-14T19:07:39.594Z,6.60
2023-05-14T19:10:11.965Z,6.60
2023-05-14T19:12:47.707Z,6.70
2023-05-14T19:15:18.488Z,6.30
2023-05-14T19:17:51.768Z,6.80
2023-05-14T19:20:21.578Z,7.20
2023-05-14T19:22:51.612Z,6.50
2023-05-14T19:25:21.327Z,7.00
2023-05-14T19:27:51.881Z,7.00
2023-05-14T19:30:26.767Z,7.00
2023-05-14T19:33:08.833Z,7.10
2023-05-14T19:35:54.656Z,7.10
2023-05-14T19:38:25.285Z,6.90
2023-05-14T19:40:57.552Z,7.40
2023-05-14T19:43:30.068Z,7.40
2023-05-14T19:46:01.589Z,7.10
2023-05-14T19:48:41.059Z,7.50
2023-05-14T19:51:20.866Z,5.70
2023-05-14T19:53:51.224Z,7.80
2023-05-14T19:56:20.914Z,7.60
2023-05-14T19:58:51.953Z,8.40
2023-05-14T20:01:22.719Z,9.20
2023-05-14T20:03:54.901Z,9.10
2023-05-14T20:06:30.322Z,8.20
2023-05-14T20:09:16.095Z,8.30
2023-05-14T20:12:08.117Z,9.00
2023-05-14T20:14:41.871Z,8.80
2023-05-14T20:17:11.364Z,9.10
2023-05-14T20:19:40.342Z,9.50
2023-05-14T20:22:09.982Z,8.80
2023-05-14T20:24:41.630Z,8.90
2023-05-14T20:27:11.744Z,9.30
2023-05-14T20:29:41.087Z,8.20
2023-05-14T20:32:10.384Z,9.70
2023-05-14T20:34:39.494Z,9.60
2023-05-14T20:37:09.093Z,9.30
2023-05-14T20:39:38.009Z,9.10
2023-05-14T20:42:07.532Z,9.30
2023-05-14T20:44:40.694Z,10.00
2023-05-14T20:47:24.810Z,9.40
2023-05-14T20:50:24.746Z,9.20
2023-05-14T20:52:57.342Z,8.60
2023-05-14T20:55:33.650Z,9.50
2023-05-14T20:58:05.357Z,9.00
2023-05-14T21:00:36.996Z,9.00
2023-05-14T21:03:07.034Z,9.10
2023-05-14T21:05:40.723Z,8.50
2023-05-14T21:08:12.578Z,9.30
2023-05-14T21:10:46.534Z,9.60
2023-05-14T21:13:18.170Z,9.40
2023-05-14T21:15:50.221Z,8.60
2023-05-14T21:18:28.884Z,8.00
2023-05-14T21:21:04.526Z,8.90
2023-05-14T21:23:37.554Z,8.50
2023-05-14T21:26:11.887Z,9.10
2023-05-14T21:28:40.979Z,10.20
2023-05-14T21:31:12.760Z,10.40
2023-05-14T21:33:45.898Z,9.90
2023-05-14T21:36:17.733Z,10.10
2023-05-14T21:38:47.228Z,10.30
2023-05-14T21:41:15.781Z,10.00
2023-05-14T21:43:45.674Z,10.30
2023-05-14T21:46:14.486Z,10.30
2023-05-14T21:48:43.496Z,10.50
2023-05-14T21:51:12.372Z,11.00
2023-05-14T21:53:42.173Z,11.10
2023-05-14T21:56:10.753Z,11.10
2023-05-14T21:58:39.348Z,10.90
2023-05-14T22:01:09.706Z,12.20
2023-05-14T22:03:38.700Z,12.00
2023-05-14T22:06:07.751Z,11.90
2023-05-14T22:08:36.233Z,12.50
2023-05-14T22:11:05.112Z,11.50
2023-05-14T22:13:35.659Z,12.90
2023-05-14T22:16:12.029Z,12.50
2023-05-14T22:18:43.212Z,12.70
2023-05-14T22:21:11.736Z,12.50
2023-05-14T22:23:40.432Z,12.10
2023-05-14T22:26:08.998Z,12.80
2023-05-14T22:28:40.347Z,13.50
2023-05-14T22:31:09.408Z,13.00
2023-05-14T22:33:38.460Z,12.70
2023-05-14T22:36:10.890Z,12.50
2023-05-14T22:38:45.468Z,12.40
2023-05-14T22:41:23.945Z,11.70
2023-05-14T22:43:58.464Z,11.30
2023-05-14T22:46:32.608Z,12.50
2023-05-14T22:49:05.859Z,12.60
2023-05-14T22:51:38.176Z,12.50
2023-05-14T22:54:13.006Z,13.20
2023-05-14T22:56:44.424Z,12.00
2023-05-14T22:59:17.006Z,11.90
2023-05-14T23:01:49.784Z,12.90
2023-05-14T23:04:19.185Z,11.90
2023-05-14T23:06:47.891Z,12.30
2023-05-14T23:09:17.292Z,12.20
2023-05-14T23:11:46.502Z,12.70
2023-05-14T23:14:24.793Z,13.20
2023-05-14T23:16:57.398Z,12.60
2023-05-14T23:19:28.813Z,12.50
2023-05-14T23:22:01.748Z,12.50
2023-05-14T23:24:36.919Z,13.20
2023-05-14T23:27:09.555Z,12.80
2023-05-14T23:29:42.206Z,12.10
2023-05-14T23:32:13.177Z,12.60
2023-05-14T23:34:45.740Z,12.10
2023-05-14T23:37:19.125Z,12.80
2023-05-14T23:39:56.055Z,11.60
2023-05-14T23:42:26.818Z,11.40
2023-05-14T23:44:56.014Z,11.60
2023-05-14T23:47:24.708Z,12.90
2023-05-14T23:49:56.213Z,12.60
2023-05-14T23:52:27.848Z,12.60
2023-05-14T23:55:01.782Z,13.40
2023-05-14T23:57:36.042Z,11.90
